createdAt,value
2022-11-15T00:02:44.885Z,6.40
2022-11-15T00:05:32.258Z,6.45
2022-11-15T00:08:19.841Z,5.82
2022-11-15T00:11:07.484Z,5.45
2022-11-15T00:13:57.635Z,4.28
2022-11-15T00:16:44.891Z,4.38
2022-11-15T00:19:31.969Z,4.30
2022-11-15T00:22:19.183Z,7.28
2022-11-15T00:25:07.482Z,4.18
2022-11-15T00:27:58.634Z,4.45
2022-11-15T00:30:47.351Z,4.28
2022-11-15T00:33:34.947Z,7.03
2022-11-15T00:36:22.189Z,4.63
2022-11-15T00:39:09.658Z,4.63
2022-11-15T00:41:56.711Z,4.65
2022-11-15T00:44:43.961Z,5.55
2022-11-15T00:47:32.902Z,4.40
2022-11-15T00:50:20.569Z,3.80
2022-11-15T00:53:07.478Z,6.38
2022-11-15T00:55:54.997Z,3.53
2022-11-15T00:58:41.909Z,4.38
2022-11-15T01:01:29.389Z,4.47
2022-11-15T01:04:18.128Z,3.20
2022-11-15T01:07:05.342Z,5.38
2022-11-15T01:09:53.376Z,4.65
2022-11-15T01:12:40.742Z,4.05
2022-11-15T01:15:27.752Z,5.05
2022-11-15T01:18:15.068Z,4.18
2022-11-15T01:21:07.661Z,3.75
2022-11-15T01:23:56.305Z,8.38
2022-11-15T01:26:43.186Z,4.85
2022-11-15T01:29:30.487Z,6.35
2022-11-15T01:32:18.656Z,3.72
2022-11-15T01:35:06.551Z,5.78
2022-11-15T01:37:55.005Z,6.25
2022-11-15T01:40:42.744Z,6.50
2022-11-15T01:43:33.051Z,6.13
2022-11-15T01:46:31.023Z,5.35
2022-11-15T01:49:20.741Z,5.43
2022-11-15T01:52:12.747Z,5.13
2022-11-15T01:55:08.767Z,4.07
2022-11-15T01:58:00.409Z,6.05
2022-11-15T02:03:42.360Z,4.10
2022-11-15T02:06:29.651Z,5.82
2022-11-15T02:09:17.518Z,4.28
2022-11-15T02:12:08.514Z,4.40
2022-11-15T02:14:57.491Z,4.80
2022-11-15T02:18:12.659Z,6.28
2022-11-15T02:21:17.127Z,3.80
2022-11-15T02:24:48.738Z,4.80
2022-11-15T02:28:09.978Z,4.03
2022-11-15T02:31:06.533Z,4.38
2022-11-15T02:34:00.694Z,4.82
2022-11-15T02:37:03.069Z,4.05
2022-11-15T02:39:55.356Z,3.85
2022-11-15T02:43:08.296Z,4.50
2022-11-15T02:46:04.135Z,5.60
2022-11-15T02:48:51.706Z,3.95
2022-11-15T02:51:38.985Z,4.22
2022-11-15T02:54:29.072Z,5.53
2022-11-15T02:57:21.154Z,4.85
2022-11-15T03:00:10.497Z,4.90
2022-11-15T03:03:25.095Z,5.60
2022-11-15T03:06:23.134Z,5.10
2022-11-15T03:09:16.528Z,3.47
2022-11-15T03:12:09.594Z,4.13
2022-11-15T03:15:01.567Z,4.95
2022-11-15T03:17:55.732Z,4.85
2022-11-15T03:20:45.824Z,8.77
2022-11-15T03:23:34.189Z,5.65
2022-11-15T03:26:24.236Z,4.32
2022-11-15T03:29:16.005Z,6.30
2022-11-15T03:32:08.297Z,5.75
2022-11-15T03:35:00.521Z,6.35
2022-11-15T03:37:54.490Z,6.05
2022-11-15T03:40:43.290Z,6.05
2022-11-15T03:43:37.939Z,7.43
2022-11-15T03:46:29.913Z,7.57
2022-11-15T03:49:22.340Z,7.00
2022-11-15T03:52:09.773Z,8.02
2022-11-15T03:54:59.182Z,8.77
2022-11-15T03:57:46.507Z,8.35
2022-11-15T04:00:34.185Z,8.15
2022-11-15T04:03:21.723Z,9.90
2022-11-15T04:06:09.346Z,7.68
2022-11-15T04:08:59.782Z,8.23
2022-11-15T04:11:48.345Z,9.63
2022-11-15T04:14:36.097Z,7.75
2022-11-15T04:17:23.603Z,8.68
2022-11-15T04:20:31.119Z,10.55
2022-11-15T04:23:38.023Z,7.45
2022-11-15T04:26:28.800Z,8.75
2022-11-15T04:29:35.088Z,9.00
2022-11-15T04:32:22.590Z,7.97
2022-11-15T04:35:10.629Z,10.43
2022-11-15T04:37:59.289Z,11.25
2022-11-15T04:40:46.618Z,10.13
2022-11-15T04:43:34.247Z,10.07
2022-11-15T04:46:23.729Z,10.35
2022-11-15T04:49:10.962Z,8.25
2022-11-15T04:51:58.385Z,10.13
2022-11-15T04:54:45.955Z,10.88
2022-11-15T04:57:36.258Z,10.30
2022-11-15T05:00:24.098Z,12.30
2022-11-15T05:03:31.080Z,10.52
2022-11-15T05:06:18.839Z,12.60
2022-11-15T05:09:06.365Z,12.65
2022-11-15T05:11:53.603Z,16.10
2022-11-15T05:14:41.049Z,15.40
2022-11-15T05:17:28.581Z,15.07
2022-11-15T05:20:17.706Z,17.95
2022-11-15T05:23:05.506Z,19.27
2022-11-15T05:25:52.955Z,14.25
2022-11-15T05:28:40.860Z,19.05
2022-11-15T05:31:29.951Z,14.70
2022-11-15T05:34:18.468Z,16.25
2022-11-15T05:37:07.403Z,16.00
2022-11-15T05:39:54.690Z,15.80
2022-11-15T05:42:41.986Z,18.75
2022-11-15T05:45:29.620Z,17.13
2022-11-15T05:48:17.675Z,17.83
2022-11-15T05:51:05.939Z,14.45
2022-11-15T05:53:55.819Z,12.23
2022-11-15T05:56:43.297Z,13.90
2022-11-15T05:59:32.409Z,16.42
2022-11-15T06:02:19.713Z,14.57
2022-11-15T06:05:07.228Z,15.10
2022-11-15T06:07:54.184Z,16.17
2022-11-15T06:10:42.968Z,19.10
2022-11-15T06:13:32.272Z,17.23
2022-11-15T06:16:19.684Z,19.02
2022-11-15T06:19:08.688Z,14.32
2022-11-15T06:21:55.890Z,17.95
2022-11-15T06:24:45.180Z,19.13
2022-11-15T06:27:33.798Z,20.25
2022-11-15T06:30:20.871Z,22.08
2022-11-15T06:33:09.975Z,17.10
2022-11-15T06:35:56.999Z,20.60
2022-11-15T06:38:44.138Z,16.63
2022-11-15T06:41:31.510Z,18.98
2022-11-15T06:44:20.148Z,18.23
2022-11-15T06:47:07.249Z,19.58
2022-11-15T06:49:54.305Z,21.30
2022-11-15T06:52:41.650Z,19.20
2022-11-15T06:55:28.630Z,22.05
2022-11-15T06:58:15.820Z,17.35
2022-11-15T07:01:06.900Z,21.55
2022-11-15T07:03:54.270Z,18.00
2022-11-15T07:06:41.511Z,20.05
2022-11-15T07:09:28.706Z,21.35
2022-11-15T07:12:16.147Z,21.35
2022-11-15T07:15:03.409Z,16.65
2022-11-15T07:17:52.228Z,19.55
2022-11-15T07:20:39.166Z,19.27
2022-11-15T07:23:26.367Z,21.23
2022-11-15T07:26:14.107Z,22.48
2022-11-15T07:29:00.926Z,20.88
2022-11-15T07:31:48.185Z,20.60
2022-11-15T07:34:37.018Z,20.52
2022-11-15T07:37:24.411Z,20.52
2022-11-15T07:40:12.471Z,21.27
2022-11-15T07:43:02.861Z,22.83
2022-11-15T07:45:52.450Z,24.23
2022-11-15T07:48:44.753Z,23.15
2022-11-15T07:51:33.812Z,22.75
2022-11-15T07:54:21.231Z,19.60
2022-11-15T07:57:10.469Z,21.70
2022-11-15T07:59:57.653Z,23.05
2022-11-15T08:02:45.512Z,20.92
2022-11-15T08:05:33.148Z,22.73
2022-11-15T08:08:22.083Z,19.08
2022-11-15T08:11:09.263Z,20.13
2022-11-15T08:13:56.622Z,16.25
2022-11-15T08:16:44.241Z,17.95
2022-11-15T08:19:31.384Z,17.77
2022-11-15T08:22:18.830Z,17.48
2022-11-15T08:25:07.787Z,17.08
2022-11-15T08:27:55.530Z,14.48
2022-11-15T08:30:46.559Z,14.60
2022-11-15T08:33:34.610Z,15.00
2022-11-15T08:36:22.008Z,13.68
2022-11-15T08:39:11.717Z,15.07
2022-11-15T08:42:00.320Z,13.77
2022-11-15T08:44:47.270Z,13.75
2022-11-15T08:47:34.521Z,16.17
2022-11-15T08:50:21.852Z,16.27
2022-11-15T08:53:09.614Z,14.07
2022-11-15T08:55:57.024Z,14.30
2022-11-15T08:58:46.947Z,13.02
2022-11-15T09:01:34.346Z,13.75
2022-11-15T09:04:21.494Z,13.57
2022-11-15T09:07:08.890Z,17.05
2022-11-15T09:09:56.056Z,14.55
2022-11-15T09:12:43.479Z,14.15
2022-11-15T09:15:32.115Z,13.98
2022-11-15T09:18:20.963Z,12.70
2022-11-15T09:21:10.205Z,11.00
2022-11-15T09:23:57.314Z,9.38
2022-11-15T09:26:44.617Z,14.35
2022-11-15T09:29:32.022Z,13.23
2022-11-15T09:32:20.803Z,13.57
2022-11-15T09:35:08.850Z,14.90
2022-11-15T09:37:56.555Z,10.80
2022-11-15T09:40:43.618Z,10.88
2022-11-15T09:43:39.619Z,9.93
2022-11-15T09:46:49.427Z,11.55
2022-11-15T09:49:37.902Z,9.90
2022-11-15T09:52:20.176Z,10.27
2022-11-15T09:54:53.369Z,7.80
2022-11-15T09:57:32.735Z,8.52
2022-11-15T10:00:44.785Z,8.55
2022-11-15T10:03:12.594Z,9.90
2022-11-15T10:05:45.047Z,8.73
2022-11-15T10:08:28.357Z,9.32
2022-11-15T10:11:30.373Z,7.50
2022-11-15T10:16:38.915Z,6.78
2022-11-15T10:19:14.742Z,8.52
2022-11-15T10:21:59.065Z,8.05
2022-11-15T10:24:30.459Z,7.68
2022-11-15T10:26:59.458Z,10.30
2022-11-15T10:29:28.481Z,7.70
2022-11-15T10:31:57.061Z,9.20
2022-11-15T10:34:27.895Z,8.55
2022-11-15T10:37:03.170Z,7.03
2022-11-15T10:39:33.797Z,5.70
2022-11-15T10:42:18.462Z,8.17
2022-11-15T10:44:47.705Z,5.47
2022-11-15T10:47:39.788Z,4.72
2022-11-15T10:50:28.659Z,5.68
2022-11-15T10:52:59.258Z,3.60
2022-11-15T10:55:32.252Z,4.25
2022-11-15T10:58:06.093Z,4.85
2022-11-15T11:00:40.929Z,4.55
2022-11-15T11:03:31.233Z,3.22
2022-11-15T11:06:07.995Z,4.90
2022-11-15T11:08:38.057Z,2.63
2022-11-15T11:11:08.436Z,4.50
2022-11-15T11:13:40.012Z,3.60
2022-11-15T11:16:47.430Z,3.83
2022-11-15T11:19:29.098Z,5.28
2022-11-15T11:22:05.316Z,6.75
2022-11-15T11:24:41.525Z,4.45
2022-11-15T11:27:29.779Z,6.00
2022-11-15T11:30:12.153Z,5.53
2022-11-15T11:32:58.534Z,1.83
2022-11-15T11:35:33.303Z,3.58
2022-11-15T11:38:20.583Z,2.42
2022-11-15T11:41:03.091Z,0.95
2022-11-15T11:43:44.008Z,2.30
2022-11-15T11:46:35.664Z,0.93
2022-11-15T11:49:08.906Z,0.70
2022-11-15T11:51:42.468Z,1.35
2022-11-15T11:54:17.206Z,0.50
2022-11-15T11:56:47.796Z,1.67
2022-11-15T11:59:25.782Z,1.10
2022-11-15T12:01:54.867Z,0.28
2022-11-15T12:04:28.561Z,1.27
2022-11-15T12:07:02.419Z,0.95
2022-11-15T12:09:36.249Z,0.45
2022-11-15T12:12:12.349Z,0.68
2022-11-15T12:14:48.303Z,1.10
2022-11-15T12:17:20.585Z,0.70
2022-11-15T12:19:49.598Z,0.70
2022-11-15T12:22:23.468Z,1.60
2022-11-15T12:24:57.555Z,2.70
2022-11-15T12:27:35.989Z,1.65
2022-11-15T12:30:11.422Z,0.88
2022-11-15T12:32:42.284Z,0.40
2022-11-15T12:35:26.780Z,1.30
2022-11-15T12:37:57.589Z,1.02
2022-11-15T12:40:28.421Z,0.40
2022-11-15T12:43:07.564Z,0.52
2022-11-15T12:45:38.905Z,0.80
2022-11-15T12:48:58.071Z,2.05
2022-11-15T12:52:09.185Z,1.10
2022-11-15T12:55:01.419Z,2.08
2022-11-15T12:57:44.046Z,0.75
2022-11-15T13:00:48.115Z,1.45
2022-11-15T13:03:25.761Z,0.88
2022-11-15T13:14:45.661Z,2.42
2022-11-15T13:17:41.288Z,1.33
2022-11-15T13:20:29.067Z,3.15
2022-11-15T13:23:05.401Z,1.80
2022-11-15T13:26:08.988Z,3.35
2022-11-15T13:28:41.470Z,2.60
2022-11-15T13:31:27.607Z,1.00
2022-11-15T13:33:59.636Z,2.15
2022-11-15T13:36:31.548Z,2.95
2022-11-15T13:39:03.408Z,2.05
2022-11-15T13:41:34.612Z,4.10
2022-11-15T13:44:06.053Z,2.97
2022-11-15T13:46:38.196Z,1.30
2022-11-15T13:49:08.353Z,1.07
2022-11-15T13:51:41.788Z,4.23
2022-11-15T13:54:19.179Z,1.60
2022-11-15T13:56:52.525Z,3.65
2022-11-15T13:59:29.252Z,0.93
2022-11-15T14:02:02.130Z,3.35
2022-11-15T14:04:34.955Z,1.02
2022-11-15T14:07:04.974Z,1.50
2022-11-15T14:09:37.235Z,2.92
2022-11-15T14:12:26.816Z,1.17
2022-11-15T14:14:55.777Z,1.33
2022-11-15T14:17:47.134Z,0.50
2022-11-15T14:20:29.689Z,0.70
2022-11-15T14:23:00.018Z,1.58
2022-11-15T14:25:30.382Z,1.02
2022-11-15T14:28:31.840Z,0.70
2022-11-15T14:31:02.247Z,0.50
2022-11-15T14:33:35.225Z,0.90
2022-11-15T14:36:07.781Z,1.05
2022-11-15T14:38:37.109Z,1.20
2022-11-15T14:41:06.972Z,1.25
2022-11-15T14:43:35.802Z,3.55
2022-11-15T14:46:04.572Z,1.27
2022-11-15T14:48:36.168Z,2.08
2022-11-15T14:51:04.973Z,2.17
2022-11-15T14:53:34.648Z,3.05
2022-11-15T14:56:03.731Z,2.33
2022-11-15T14:58:32.940Z,1.65
2022-11-15T15:01:01.888Z,1.77
2022-11-15T15:03:30.594Z,2.03
2022-11-15T15:06:00.860Z,1.60
2022-11-15T15:08:30.009Z,1.13
2022-11-15T15:10:59.708Z,0.90
2022-11-15T15:13:31.601Z,1.23
2022-11-15T15:16:00.362Z,1.30
2022-11-15T15:18:29.320Z,1.27
2022-11-15T15:21:04.155Z,1.50
2022-11-15T15:23:33.735Z,1.38
2022-11-15T15:26:02.772Z,1.92
2022-11-15T15:28:34.734Z,1.23
2022-11-15T15:31:03.841Z,2.80
2022-11-15T15:33:32.487Z,2.20
2022-11-15T15:36:02.618Z,2.45
2022-11-15T15:38:31.732Z,3.35
2022-11-15T15:41:04.075Z,3.00
2022-11-15T15:43:32.649Z,3.00
2022-11-15T15:46:01.182Z,1.90
2022-11-15T15:48:30.125Z,2.28
2022-11-15T15:50:58.990Z,2.22
2022-11-15T15:53:28.960Z,2.90
2022-11-15T15:55:57.528Z,3.15
2022-11-15T15:58:26.264Z,2.20
2022-11-15T16:00:54.892Z,4.05
2022-11-15T16:03:23.545Z,3.15
2022-11-15T16:05:52.990Z,3.13
2022-11-15T16:08:22.991Z,3.45
2022-11-15T16:10:53.289Z,5.40
2022-11-15T16:13:22.105Z,5.47
2022-11-15T16:15:54.984Z,2.92
2022-11-15T16:18:23.538Z,5.65
2022-11-15T16:20:55.980Z,2.70
2022-11-15T16:23:25.636Z,5.07
2022-11-15T16:25:58.329Z,4.90
2022-11-15T16:28:30.051Z,5.90
2022-11-15T16:31:04.541Z,5.28
2022-11-15T16:33:33.751Z,5.65
2022-11-15T16:36:02.463Z,4.80
2022-11-15T16:38:31.919Z,3.75
2022-11-15T16:41:02.357Z,4.60
2022-11-15T16:43:30.915Z,3.28
2022-11-15T16:45:59.694Z,5.75
2022-11-15T16:48:30.069Z,4.05
2022-11-15T16:51:00.811Z,4.85
2022-11-15T16:55:59.709Z,3.75
2022-11-15T16:58:33.713Z,2.60
2022-11-15T17:01:03.445Z,4.32
2022-11-15T17:03:32.997Z,2.38
2022-11-15T17:06:04.013Z,3.20
2022-11-15T17:08:32.944Z,2.58
2022-11-15T17:11:08.429Z,2.83
2022-11-15T17:13:39.270Z,2.13
2022-11-15T17:16:14.498Z,2.05
2022-11-15T17:18:45.819Z,2.85
2022-11-15T17:21:17.492Z,3.33
2022-11-15T17:23:47.290Z,2.15
2022-11-15T17:26:29.430Z,2.30
2022-11-15T17:29:01.778Z,3.38
2022-11-15T17:31:33.947Z,1.55
2022-11-15T17:34:03.822Z,1.65
2022-11-15T17:36:33.233Z,4.40
2022-11-15T17:39:02.267Z,2.25
2022-11-15T17:41:31.644Z,2.80
2022-11-15T17:44:03.240Z,1.95
2022-11-15T17:46:32.494Z,2.03
2022-11-15T17:49:01.620Z,2.80
2022-11-15T17:51:30.283Z,2.05
2022-11-15T17:53:59.408Z,4.32
2022-11-15T17:56:30.902Z,2.85
2022-11-15T17:59:02.365Z,3.30
2022-11-15T18:01:32.743Z,4.03
2022-11-15T18:04:03.146Z,3.33
2022-11-15T18:06:33.985Z,3.97
2022-11-15T18:09:03.936Z,2.90
2022-11-15T18:11:35.957Z,2.58
2022-11-15T18:14:08.348Z,4.20
2022-11-15T18:16:40.180Z,5.38
2022-11-15T18:19:13.491Z,4.78
2022-11-15T18:21:59.266Z,7.20
2022-11-15T18:24:32.261Z,2.45
2022-11-15T18:27:02.763Z,2.58
2022-11-15T18:29:34.703Z,2.17
2022-11-15T18:32:06.630Z,3.58
2022-11-15T18:34:35.425Z,2.28
2022-11-15T18:37:04.649Z,2.30
2022-11-15T18:39:33.865Z,2.60
2022-11-15T18:42:03.924Z,3.83
2022-11-15T18:44:36.364Z,4.22
2022-11-15T18:47:05.430Z,2.67
2022-11-15T18:49:34.546Z,2.10
2022-11-15T18:52:03.463Z,1.65
2022-11-15T18:54:32.227Z,1.60
2022-11-15T18:57:01.744Z,1.20
2022-11-15T18:59:32.083Z,2.20
2022-11-15T19:02:02.283Z,1.33
2022-11-15T19:04:31.626Z,1.10
2022-11-15T19:07:00.289Z,1.70
2022-11-15T19:09:33.109Z,2.78
2022-11-15T19:12:02.582Z,1.42
2022-11-15T19:14:31.403Z,3.83
2022-11-15T19:17:02.206Z,4.47
2022-11-15T19:19:33.388Z,2.08
2022-11-15T19:22:03.268Z,2.22
2022-11-15T19:24:31.910Z,1.30
2022-11-15T19:27:00.929Z,2.17
2022-11-15T19:29:41.018Z,2.78
2022-11-15T19:32:11.609Z,1.58
2022-11-15T19:34:42.586Z,3.00
2022-11-15T19:39:41.206Z,1.83
2022-11-15T19:42:13.203Z,2.45
2022-11-15T19:44:42.128Z,2.42
2022-11-15T19:47:13.890Z,1.17
2022-11-15T19:49:47.086Z,1.48
2022-11-15T19:52:15.868Z,1.50
2022-11-15T19:54:44.625Z,1.10
2022-11-15T19:57:13.526Z,3.33
2022-11-15T19:59:45.385Z,2.60
2022-11-15T20:02:17.856Z,3.97
2022-11-15T20:04:47.945Z,1.83
2022-11-15T20:07:16.967Z,1.67
2022-11-15T20:09:45.931Z,1.67
2022-11-15T20:12:15.126Z,1.77
2022-11-15T20:14:46.487Z,3.28
2022-11-15T20:17:18.395Z,1.90
2022-11-15T20:19:48.105Z,2.42
2022-11-15T20:22:18.810Z,3.00
2022-11-15T20:24:51.131Z,2.25
2022-11-15T20:27:29.406Z,2.53
2022-11-15T20:30:00.809Z,3.55
2022-11-15T20:32:35.944Z,3.13
2022-11-15T20:35:06.506Z,3.03
2022-11-15T20:37:35.346Z,3.15
2022-11-15T20:40:04.207Z,2.35
2022-11-15T20:42:33.208Z,2.30
2022-11-15T20:45:02.749Z,2.63
2022-11-15T20:47:34.705Z,5.00
2022-11-15T20:50:27.629Z,3.33
2022-11-15T20:52:54.586Z,1.92
2022-11-15T20:57:52.543Z,2.50
2022-11-15T21:00:26.463Z,2.38
2022-11-15T21:02:56.883Z,2.45
2022-11-15T21:05:25.585Z,3.20
2022-11-15T21:07:54.283Z,3.13
2022-11-15T21:10:40.280Z,3.00
2022-11-15T21:13:11.653Z,2.60
2022-11-15T21:15:40.721Z,4.05
2022-11-15T21:18:10.864Z,2.42
2022-11-15T21:20:40.068Z,4.17
2022-11-15T21:23:08.906Z,3.88
2022-11-15T21:25:37.748Z,4.22
2022-11-15T21:28:07.244Z,6.57
2022-11-15T21:30:36.027Z,7.07
2022-11-15T21:33:04.588Z,5.90
2022-11-15T21:35:35.265Z,6.20
2022-11-15T21:38:04.006Z,8.00
2022-11-15T21:40:32.604Z,5.70
2022-11-15T21:43:01.484Z,6.68
2022-11-15T21:45:30.064Z,7.53
2022-11-15T21:47:58.634Z,7.55
2022-11-15T21:50:27.265Z,6.35
2022-11-15T21:52:58.190Z,7.28
2022-11-15T21:55:27.016Z,7.38
2022-11-15T21:57:55.626Z,7.90
2022-11-15T22:00:44.301Z,6.03
2022-11-15T22:03:14.176Z,7.10
2022-11-15T22:05:45.828Z,6.88
2022-11-15T22:08:16.847Z,7.22
2022-11-15T22:10:48.945Z,7.03
2022-11-15T22:13:20.121Z,8.43
2022-11-15T22:18:23.534Z,6.85
2022-11-15T22:20:56.063Z,6.45
2022-11-15T22:23:28.829Z,5.28
2022-11-15T22:25:57.864Z,7.25
2022-11-15T22:28:27.221Z,6.78
2022-11-15T22:30:56.983Z,6.13
2022-11-15T22:33:27.815Z,6.95
2022-11-15T22:35:56.867Z,7.38
2022-11-15T22:38:28.226Z,6.18
2022-11-15T22:41:03.344Z,5.25
2022-11-15T22:43:32.491Z,6.20
2022-11-15T22:46:02.416Z,5.60
2022-11-15T22:48:33.902Z,4.13
2022-11-15T22:51:03.505Z,4.30
2022-11-15T22:53:33.813Z,4.72
2022-11-15T22:56:04.428Z,5.30
2022-11-15T22:58:34.713Z,5.15
2022-11-15T23:01:05.812Z,3.72
2022-11-15T23:03:35.263Z,3.97
2022-11-15T23:06:05.924Z,4.15
2022-11-15T23:08:36.647Z,5.80
2022-11-15T23:13:53.202Z,3.60
2022-11-15T23:16:26.180Z,4.07
2022-11-15T23:18:57.327Z,3.38
2022-11-15T23:24:23.158Z,2.53
2022-11-15T23:26:59.073Z,2.88
2022-11-15T23:29:29.142Z,3.05
2022-11-15T23:32:15.996Z,2.63
2022-11-15T23:34:47.059Z,3.05
2022-11-15T23:39:46.620Z,3.47
2022-11-15T23:42:20.162Z,4.40
2022-11-15T23:44:50.988Z,5.40
2022-11-15T23:47:20.274Z,4.18
2022-11-15T23:49:49.014Z,3.80
2022-11-15T23:52:18.251Z,2.85
2022-11-15T23:54:48.320Z,3.70
2022-11-15T23:57:17.042Z,3.33
2022-11-15T23:59:45.858Z,7.10
